createdAt,value
2023-04-23T00:00:11.420Z,8.38
2023-04-23T00:01:14.218Z,8.31
2023-04-23T00:02:17.444Z,8.31
2023-04-23T00:03:53.431Z,8.31
2023-04-23T00:04:57.948Z,8.31
2023-04-23T00:06:01.434Z,8.31
2023-04-23T00:07:36.048Z,8.31
2023-04-23T00:08:38.965Z,8.25
2023-04-23T00:09:42.272Z,8.31
2023-04-23T00:11:17.238Z,8.31
2023-04-23T00:12:20.080Z,8.25
2023-04-23T00:13:23.227Z,8.31
2023-04-23T00:14:57.914Z,8.25
2023-04-23T00:16:00.948Z,8.25
2023-04-23T00:17:04.003Z,8.31
2023-04-23T00:18:38.701Z,8.31
2023-04-23T00:19:41.418Z,8.31
2023-04-23T00:20:44.239Z,8.31
2023-04-23T00:22:18.688Z,8.25
2023-04-23T00:23:21.369Z,8.25
2023-04-23T00:24:24.051Z,8.25
2023-04-23T00:25:59.082Z,8.19
2023-04-23T00:27:01.858Z,8.19
2023-04-23T00:28:04.732Z,8.19
2023-04-23T00:29:40.311Z,8.19
2023-04-23T00:30:43.219Z,8.13
2023-04-23T00:31:46.118Z,8.19
2023-04-23T00:33:21.058Z,8.19
2023-04-23T00:34:23.754Z,8.13
2023-04-23T00:35:26.879Z,8.13
2023-04-23T00:37:01.365Z,8.13
2023-04-23T00:38:04.235Z,8.13
2023-04-23T00:39:06.995Z,8.13
2023-04-23T00:40:41.649Z,8.06
2023-04-23T00:41:44.404Z,8.06
2023-04-23T00:42:47.501Z,8.06
2023-04-23T00:44:22.185Z,8.06
2023-04-23T00:45:25.474Z,8.06
2023-04-23T00:46:28.639Z,8.06
2023-04-23T00:48:03.326Z,8.13
2023-04-23T00:49:06.310Z,8.13
2023-04-23T00:50:09.124Z,8.13
2023-04-23T00:51:43.564Z,8.13
2023-04-23T00:52:46.370Z,8.13
2023-04-23T00:53:49.098Z,8.06
2023-04-23T00:55:23.568Z,8.06
2023-04-23T00:56:26.301Z,8.06
2023-04-23T00:57:29.132Z,8.06
2023-04-23T00:59:03.695Z,8.06
2023-04-23T01:00:11.604Z,8.06
2023-04-23T01:01:14.482Z,8.06
2023-04-23T01:02:17.910Z,8.06
2023-04-23T01:03:54.266Z,8.06
2023-04-23T01:04:58.619Z,8.06
2023-04-23T01:06:01.590Z,8.06
2023-04-23T01:07:36.182Z,8.06
2023-04-23T01:08:38.855Z,8.06
2023-04-23T01:09:41.615Z,8.06
2023-04-23T01:11:16.295Z,8.06
2023-04-23T01:12:19.026Z,8.06
2023-04-23T01:13:21.840Z,8.06
2023-04-23T01:14:56.288Z,8.00
2023-04-23T01:15:59.429Z,8.00
2023-04-23T01:17:02.534Z,8.00
2023-04-23T01:18:37.849Z,8.00
2023-04-23T01:19:40.661Z,8.00
2023-04-23T01:20:43.595Z,8.00
2023-04-23T01:22:18.416Z,8.00
2023-04-23T01:23:21.335Z,7.94
2023-04-23T01:24:24.041Z,7.94
2023-04-23T01:25:58.987Z,7.94
2023-04-23T01:27:01.798Z,7.94
2023-04-23T01:28:04.581Z,7.94
2023-04-23T01:29:39.040Z,7.94
2023-04-23T01:30:41.830Z,7.94
2023-04-23T01:31:44.871Z,7.88
2023-04-23T01:33:19.452Z,7.88
2023-04-23T01:34:22.243Z,7.88
2023-04-23T01:35:25.510Z,7.88
2023-04-23T01:37:00.254Z,7.81
2023-04-23T01:38:03.509Z,7.88
2023-04-23T01:39:06.493Z,7.81
2023-04-23T01:40:41.232Z,7.81
2023-04-23T01:41:44.369Z,7.81
2023-04-23T01:42:47.187Z,7.81
2023-04-23T01:44:21.767Z,7.75
2023-04-23T01:45:24.605Z,7.75
2023-04-23T01:46:27.453Z,7.75
2023-04-23T01:48:02.184Z,7.75
2023-04-23T01:49:04.866Z,7.75
2023-04-23T01:50:07.706Z,7.75
2023-04-23T01:51:42.382Z,7.69
2023-04-23T01:52:45.197Z,7.69
2023-04-23T01:53:48.070Z,7.69
2023-04-23T01:55:22.635Z,7.69
2023-04-23T01:56:25.432Z,7.69
2023-04-23T01:57:28.336Z,7.69
2023-04-23T01:59:02.826Z,7.69
2023-04-23T02:00:12.325Z,7.69
2023-04-23T02:01:15.112Z,7.69
2023-04-23T02:02:18.366Z,7.69
2023-04-23T02:03:54.143Z,7.69
2023-04-23T02:04:57.934Z,7.69
2023-04-23T02:06:00.747Z,7.69
2023-04-23T02:07:35.839Z,7.75
2023-04-23T02:08:38.722Z,7.81
2023-04-23T02:09:41.588Z,7.81
2023-04-23T02:11:16.451Z,7.81
2023-04-23T02:12:19.423Z,7.81
2023-04-23T02:13:22.202Z,7.81
2023-04-23T02:14:56.849Z,7.88
2023-04-23T02:15:59.795Z,7.88
2023-04-23T02:17:03.180Z,7.88
2023-04-23T02:18:37.814Z,7.88
2023-04-23T02:19:40.569Z,7.94
2023-04-23T02:20:43.510Z,7.94
2023-04-23T02:22:18.146Z,7.94
2023-04-23T02:23:20.944Z,7.94
2023-04-23T02:24:23.817Z,8.00
2023-04-23T02:25:59.004Z,8.00
2023-04-23T02:27:02.036Z,7.94
2023-04-23T02:28:04.857Z,7.94
2023-04-23T02:29:39.509Z,7.94
2023-04-23T02:30:42.299Z,8.00
2023-04-23T02:31:45.261Z,8.00
2023-04-23T02:33:20.232Z,8.00
2023-04-23T02:34:23.079Z,8.00
2023-04-23T02:35:26.142Z,8.06
2023-04-23T02:37:01.071Z,8.06
2023-04-23T02:38:03.822Z,8.06
2023-04-23T02:39:06.593Z,8.06
2023-04-23T02:40:41.771Z,8.06
2023-04-23T02:41:44.636Z,8.06
2023-04-23T02:42:47.505Z,8.06
2023-04-23T02:44:22.271Z,8.06
2023-04-23T02:45:25.672Z,8.06
2023-04-23T02:46:28.602Z,8.06
2023-04-23T02:48:03.863Z,8.06
2023-04-23T02:49:06.610Z,8.06
2023-04-23T02:50:09.434Z,8.06
2023-04-23T02:51:43.972Z,8.06
2023-04-23T02:52:46.822Z,8.06
2023-04-23T02:53:49.574Z,8.13
2023-04-23T02:55:23.969Z,8.13
2023-04-23T02:56:26.814Z,8.13
2023-04-23T02:57:29.694Z,8.13
2023-04-23T02:59:04.357Z,8.19
2023-04-23T03:00:11.757Z,8.19
2023-04-23T03:01:14.768Z,8.19
2023-04-23T03:02:18.286Z,8.19
2023-04-23T03:03:54.610Z,8.19
2023-04-23T03:04:58.680Z,8.19
2023-04-23T03:06:01.406Z,8.19
2023-04-23T03:07:35.903Z,8.19
2023-04-23T03:08:38.752Z,8.19
2023-04-23T03:09:41.431Z,8.19
2023-04-23T03:11:15.900Z,8.19
2023-04-23T03:12:18.692Z,8.19
2023-04-23T03:13:21.439Z,8.19
2023-04-23T03:14:56.147Z,8.13
2023-04-23T03:15:59.124Z,8.13
2023-04-23T03:17:02.221Z,8.13
2023-04-23T03:18:37.188Z,8.13
2023-04-23T03:19:40.090Z,8.13
2023-04-23T03:20:43.186Z,8.13
2023-04-23T03:22:17.680Z,8.13
2023-04-23T03:23:20.460Z,8.13
2023-04-23T03:24:23.173Z,8.13
2023-04-23T03:25:58.424Z,8.13
2023-04-23T03:27:01.172Z,8.13
2023-04-23T03:28:04.076Z,8.13
2023-04-23T03:29:38.547Z,8.13
2023-04-23T03:30:41.417Z,8.13
2023-04-23T03:31:44.708Z,8.13
2023-04-23T03:33:19.367Z,8.13
2023-04-23T03:34:22.403Z,8.13
2023-04-23T03:35:25.776Z,8.13
2023-04-23T03:37:00.493Z,8.13
2023-04-23T03:38:03.331Z,8.13
2023-04-23T03:39:06.226Z,8.13
2023-04-23T03:40:40.922Z,8.13
2023-04-23T03:41:43.760Z,8.13
2023-04-23T03:42:46.441Z,8.13
2023-04-23T03:44:20.964Z,8.13
2023-04-23T03:45:23.905Z,8.13
2023-04-23T03:46:26.858Z,8.13
2023-04-23T03:48:01.987Z,8.19
2023-04-23T03:49:04.876Z,8.19
2023-04-23T03:50:07.690Z,8.13
2023-04-23T03:51:43.995Z,8.19
2023-04-23T03:52:46.774Z,8.19
2023-04-23T03:53:49.527Z,8.13
2023-04-23T03:55:24.141Z,8.13
2023-04-23T03:56:27.333Z,8.13
2023-04-23T03:57:30.067Z,8.13
2023-04-23T03:59:04.659Z,8.13
2023-04-23T04:00:12.312Z,8.13
2023-04-23T04:01:15.002Z,8.13
2023-04-23T04:02:17.827Z,8.13
2023-04-23T04:03:54.197Z,8.13
2023-04-23T04:05:00.101Z,8.13
2023-04-23T04:05:40.990Z,8.13
2023-04-23T04:06:44.073Z,8.13
2023-04-23T04:07:46.857Z,8.13
2023-04-23T04:09:21.639Z,8.13
2023-04-23T04:10:24.402Z,8.13
2023-04-23T04:11:27.356Z,8.13
2023-04-23T04:13:04.558Z,8.13
2023-04-23T04:14:07.431Z,8.13
2023-04-23T04:15:10.513Z,8.06
2023-04-23T04:16:45.037Z,8.06
2023-04-23T04:17:48.097Z,8.00
2023-04-23T04:18:50.911Z,8.00
2023-04-23T04:20:26.030Z,7.94
2023-04-23T04:21:28.838Z,7.94
2023-04-23T04:22:31.591Z,7.94
2023-04-23T04:24:06.153Z,7.88
2023-04-23T04:25:12.224Z,7.88
2023-04-23T04:26:15.154Z,7.88
2023-04-23T04:27:49.674Z,7.88
2023-04-23T04:28:52.801Z,7.88
2023-04-23T04:29:55.749Z,7.88
2023-04-23T04:31:30.535Z,7.81
2023-04-23T04:32:33.660Z,7.81
2023-04-23T04:33:36.976Z,7.81
2023-04-23T04:35:11.961Z,7.81
2023-04-23T04:36:14.801Z,7.81
2023-04-23T04:37:17.827Z,7.81
2023-04-23T04:38:52.353Z,7.81
2023-04-23T04:39:55.345Z,7.81
2023-04-23T04:40:58.308Z,7.75
2023-04-23T04:42:32.890Z,7.75
2023-04-23T04:43:35.851Z,7.81
2023-04-23T04:44:38.810Z,7.81
2023-04-23T04:46:13.524Z,7.81
2023-04-23T04:47:16.536Z,7.81
2023-04-23T04:48:19.677Z,7.81
2023-04-23T04:49:54.166Z,7.81
2023-04-23T04:50:56.917Z,7.81
2023-04-23T04:51:59.647Z,7.81
2023-04-23T04:53:34.363Z,7.81
2023-04-23T04:54:37.258Z,7.81
2023-04-23T04:55:40.950Z,7.81
2023-04-23T04:57:15.652Z,7.81
2023-04-23T04:58:18.546Z,7.81
2023-04-23T04:59:21.409Z,7.75
2023-04-23T05:01:14.983Z,7.75
2023-04-23T05:02:18.128Z,7.75
2023-04-23T05:03:54.128Z,7.75
2023-04-23T05:04:58.614Z,7.75
2023-04-23T05:06:01.314Z,7.75
2023-04-23T05:07:35.888Z,7.75
2023-04-23T05:08:38.866Z,7.75
2023-04-23T05:09:43.660Z,7.75
2023-04-23T05:11:19.518Z,7.75
2023-04-23T05:12:22.280Z,7.75
2023-04-23T05:13:25.196Z,7.75
2023-04-23T05:14:59.906Z,7.69
2023-04-23T05:16:02.761Z,7.75
2023-04-23T05:17:05.890Z,7.75
2023-04-23T05:18:40.534Z,7.75
2023-04-23T05:19:43.508Z,7.75
2023-04-23T05:20:46.335Z,7.75
2023-04-23T05:22:20.767Z,7.81
2023-04-23T05:23:23.491Z,7.81
2023-04-23T05:24:26.283Z,7.75
2023-04-23T05:26:01.545Z,7.81
2023-04-23T05:27:04.453Z,7.81
2023-04-23T05:28:07.426Z,7.81
2023-04-23T05:29:42.142Z,7.81
2023-04-23T05:30:45.026Z,7.81
2023-04-23T05:31:47.898Z,7.88
2023-04-23T05:33:23.209Z,7.88
2023-04-23T05:34:42.171Z,7.94
2023-04-23T05:35:45.421Z,7.94
2023-04-23T05:37:20.035Z,7.94
2023-04-23T05:38:22.719Z,8.06
2023-04-23T05:39:25.396Z,8.06
2023-04-23T05:41:02.211Z,8.13
2023-04-23T05:42:04.970Z,8.13
2023-04-23T05:43:07.811Z,8.13
2023-04-23T05:44:42.572Z,8.13
2023-04-23T05:45:49.177Z,8.13
2023-04-23T05:46:52.334Z,8.19
2023-04-23T05:48:27.022Z,8.19
2023-04-23T05:49:30.126Z,8.25
2023-04-23T05:50:33.002Z,8.25
2023-04-23T05:52:07.749Z,8.31
2023-04-23T05:53:10.668Z,8.31
2023-04-23T05:54:13.627Z,8.38
2023-04-23T05:55:48.464Z,8.38
2023-04-23T05:56:52.868Z,8.44
2023-04-23T05:57:57.385Z,8.44
2023-04-23T05:59:32.024Z,8.50
2023-04-23T06:01:14.514Z,8.50
2023-04-23T06:02:17.374Z,8.50
2023-04-23T06:03:53.915Z,8.50
2023-04-23T06:04:59.614Z,8.50
2023-04-23T06:06:05.004Z,8.50
2023-04-23T06:07:39.762Z,8.50
2023-04-23T06:08:42.618Z,8.50
2023-04-23T06:09:45.510Z,8.50
2023-04-23T06:11:20.258Z,8.50
2023-04-23T06:12:23.011Z,8.56
2023-04-23T06:13:25.900Z,8.50
2023-04-23T06:15:02.025Z,8.56
2023-04-23T06:16:05.093Z,8.56
2023-04-23T06:17:08.108Z,8.56
2023-04-23T06:18:42.652Z,8.56
2023-04-23T06:19:45.481Z,8.56
2023-04-23T06:20:48.364Z,8.56
2023-04-23T06:22:24.769Z,8.56
2023-04-23T06:23:27.594Z,8.56
2023-04-23T06:24:30.479Z,8.56
2023-04-23T06:26:05.949Z,8.56
2023-04-23T06:27:08.856Z,8.56
2023-04-23T06:28:11.702Z,8.56
2023-04-23T06:29:46.335Z,8.56
2023-04-23T06:30:49.151Z,8.56
2023-04-23T06:31:52.431Z,8.56
2023-04-23T06:33:27.622Z,8.63
2023-04-23T06:34:30.504Z,8.63
2023-04-23T06:35:52.829Z,8.75
2023-04-23T06:37:29.217Z,8.75
2023-04-23T06:38:32.860Z,8.88
2023-04-23T06:39:35.773Z,8.94
2023-04-23T06:41:10.448Z,9.13
2023-04-23T06:42:13.325Z,9.19
2023-04-23T06:43:16.044Z,9.25
2023-04-23T06:44:50.631Z,9.31
2023-04-23T06:45:55.236Z,9.38
2023-04-23T06:46:58.206Z,9.44
2023-04-23T06:48:33.001Z,9.50
2023-04-23T06:49:35.710Z,9.56
2023-04-23T06:50:38.810Z,9.63
2023-04-23T06:52:13.363Z,9.69
2023-04-23T06:53:16.125Z,9.75
2023-04-23T06:54:19.152Z,9.75
2023-04-23T06:55:54.450Z,9.88
2023-04-23T06:56:57.433Z,9.94
2023-04-23T06:58:00.406Z,10.00
2023-04-23T06:59:36.545Z,10.06
2023-04-23T07:00:11.806Z,10.13
2023-04-23T07:01:14.613Z,10.19
2023-04-23T07:02:17.911Z,10.25
2023-04-23T07:03:53.383Z,10.25
2023-04-23T07:04:56.582Z,10.25
2023-04-23T07:05:59.405Z,10.31
2023-04-23T07:07:33.999Z,10.44
2023-04-23T07:08:36.810Z,10.50
2023-04-23T07:09:39.590Z,10.50
2023-04-23T07:11:14.379Z,10.63
2023-04-23T07:12:17.253Z,10.69
2023-04-23T07:13:20.025Z,10.75
2023-04-23T07:14:54.866Z,10.88
2023-04-23T07:15:57.902Z,10.94
2023-04-23T07:17:02.881Z,11.00
2023-04-23T07:18:37.809Z,11.06
2023-04-23T07:19:40.474Z,11.06
2023-04-23T07:20:43.271Z,11.19
2023-04-23T07:22:17.818Z,11.25
2023-04-23T07:23:22.211Z,11.31
2023-04-23T07:24:24.842Z,11.44
2023-04-23T07:25:59.846Z,11.56
2023-04-23T07:27:02.657Z,11.56
2023-04-23T07:28:05.431Z,11.50
2023-04-23T07:29:39.975Z,11.56
2023-04-23T07:30:42.987Z,11.63
2023-04-23T07:31:45.972Z,11.63
2023-04-23T07:33:21.107Z,11.69
2023-04-23T07:34:24.067Z,11.75
2023-04-23T07:35:30.482Z,11.81
2023-04-23T07:37:04.914Z,11.88
2023-04-23T07:38:07.736Z,11.88
2023-04-23T07:39:10.501Z,11.94
2023-04-23T07:40:45.111Z,12.06
2023-04-23T07:41:47.813Z,12.06
2023-04-23T07:42:50.593Z,12.13
2023-04-23T07:44:25.208Z,12.25
2023-04-23T07:45:28.095Z,12.31
2023-04-23T07:46:31.417Z,12.38
2023-04-23T07:48:06.292Z,12.50
2023-04-23T07:49:09.238Z,12.56
2023-04-23T07:50:12.152Z,12.63
2023-04-23T07:51:46.792Z,12.63
2023-04-23T07:52:49.650Z,12.63
2023-04-23T07:53:52.373Z,12.63
2023-04-23T07:55:27.076Z,12.69
2023-04-23T07:56:29.825Z,12.69
2023-04-23T07:57:35.154Z,12.88
2023-04-23T07:59:09.727Z,12.94
2023-04-23T08:00:12.164Z,13.06
2023-04-23T08:01:15.022Z,13.13
2023-04-23T08:02:17.927Z,13.13
2023-04-23T08:03:56.179Z,13.19
2023-04-23T08:05:03.800Z,13.19
2023-04-23T08:06:07.579Z,13.25
2023-04-23T08:07:42.426Z,13.38
2023-04-23T08:08:45.345Z,13.44
2023-04-23T08:09:48.597Z,13.50
2023-04-23T08:11:23.335Z,13.50
2023-04-23T08:12:26.083Z,13.50
2023-04-23T08:13:28.992Z,13.56
2023-04-23T08:15:03.551Z,13.63
2023-04-23T08:16:06.358Z,13.69
2023-04-23T08:17:13.981Z,13.81
2023-04-23T08:18:58.179Z,13.88
2023-04-23T08:20:08.093Z,13.94
2023-04-23T08:21:11.105Z,14.00
2023-04-23T08:22:46.151Z,14.19
2023-04-23T08:23:49.159Z,14.25
2023-04-23T08:24:52.598Z,14.25
2023-04-23T08:26:27.242Z,14.31
2023-04-23T08:27:30.396Z,14.38
2023-04-23T08:28:33.241Z,14.38
2023-04-23T08:30:07.825Z,14.38
2023-04-23T08:31:22.898Z,14.38
2023-04-23T08:32:29.212Z,14.31
2023-04-23T08:34:04.350Z,14.31
2023-04-23T08:35:10.016Z,14.31
2023-04-23T08:36:12.981Z,14.31
2023-04-23T08:38:02.305Z,14.38
2023-04-23T08:39:05.162Z,14.38
2023-04-23T08:40:08.053Z,14.38
2023-04-23T08:41:42.821Z,14.44
2023-04-23T08:42:45.816Z,14.44
2023-04-23T08:43:48.704Z,14.56
2023-04-23T08:45:23.295Z,14.69
2023-04-23T08:46:26.063Z,14.69
2023-04-23T08:47:29.447Z,14.75
2023-04-23T08:49:07.639Z,14.81
2023-04-23T08:50:10.601Z,14.81
2023-04-23T08:51:13.419Z,14.88
2023-04-23T08:52:48.062Z,14.94
2023-04-23T08:53:51.526Z,14.94
2023-04-23T08:54:54.393Z,14.94
2023-04-23T08:56:29.106Z,14.94
2023-04-23T08:57:32.066Z,14.94
2023-04-23T08:58:35.154Z,15.00
2023-04-23T09:00:12.704Z,15.06
2023-04-23T09:01:15.708Z,15.13
2023-04-23T09:02:18.717Z,15.19
2023-04-23T09:03:54.604Z,15.19
2023-04-23T09:04:57.623Z,15.25
2023-04-23T09:06:00.552Z,15.25
2023-04-23T09:07:35.074Z,15.38
2023-04-23T09:08:37.862Z,15.50
2023-04-23T09:09:40.924Z,15.56
2023-04-23T09:11:16.125Z,15.63
2023-04-23T09:12:19.030Z,15.69
2023-04-23T09:13:21.993Z,15.75
2023-04-23T09:14:56.699Z,15.75
2023-04-23T09:15:59.578Z,15.69
2023-04-23T09:17:02.759Z,15.63
2023-04-23T09:18:37.323Z,15.50
2023-04-23T09:19:40.476Z,15.44
2023-04-23T09:20:43.475Z,15.44
2023-04-23T09:22:18.066Z,15.38
2023-04-23T09:23:22.526Z,15.44
2023-04-23T09:24:25.273Z,15.50
2023-04-23T09:26:00.497Z,15.63
2023-04-23T09:27:03.444Z,15.69
2023-04-23T09:28:06.330Z,15.75
2023-04-23T09:29:41.376Z,15.81
2023-04-23T09:30:44.514Z,15.88
2023-04-23T09:31:47.539Z,16.00
2023-04-23T09:33:23.403Z,16.00
2023-04-23T09:34:26.192Z,16.06
2023-04-23T09:35:29.166Z,16.19
2023-04-23T09:37:04.495Z,16.25
2023-04-23T09:38:07.330Z,16.38
2023-04-23T09:39:10.374Z,16.44
2023-04-23T09:40:45.109Z,16.38
2023-04-23T09:41:47.893Z,16.31
2023-04-23T09:42:50.832Z,16.31
2023-04-23T09:44:25.551Z,16.13
2023-04-23T09:45:28.477Z,16.06
2023-04-23T09:46:31.564Z,16.00
2023-04-23T09:48:06.416Z,15.94
2023-04-23T09:49:09.366Z,16.00
2023-04-23T09:50:12.159Z,16.13
2023-04-23T09:51:46.703Z,16.19
2023-04-23T09:53:54.535Z,16.38
2023-04-23T09:54:57.489Z,16.38
2023-04-23T09:56:32.165Z,16.31
2023-04-23T09:57:34.922Z,16.25
2023-04-23T09:58:37.663Z,16.25
2023-04-23T10:00:14.771Z,16.19
2023-04-23T10:01:19.290Z,16.19
2023-04-23T10:02:22.908Z,16.19
2023-04-23T10:03:59.299Z,16.13
2023-04-23T10:05:21.815Z,16.13
2023-04-23T10:07:21.604Z,16.19
2023-04-23T10:08:56.331Z,16.06
2023-04-23T10:09:59.536Z,15.94
2023-04-23T10:11:14.144Z,15.88
2023-04-23T10:13:35.502Z,15.94
2023-04-23T10:14:38.395Z,16.00
2023-04-23T10:15:41.196Z,16.13
2023-04-23T10:17:55.221Z,16.38
2023-04-23T10:18:58.067Z,16.38
2023-04-23T10:20:01.054Z,16.44
2023-04-23T10:21:50.164Z,16.38
2023-04-23T10:23:16.221Z,16.44
2023-04-23T10:24:19.090Z,16.50
2023-04-23T10:25:56.299Z,16.44
2023-04-23T10:27:01.285Z,16.56
2023-04-23T10:28:38.604Z,16.69
2023-04-23T10:30:13.151Z,16.81
2023-04-23T10:31:15.954Z,16.88
2023-04-23T10:32:19.248Z,16.88
2023-04-23T10:34:06.874Z,16.88
2023-04-23T10:35:10.144Z,16.81
2023-04-23T10:36:13.350Z,16.75
2023-04-23T10:37:48.396Z,16.63
2023-04-23T10:38:58.870Z,16.63
2023-04-23T10:40:15.667Z,16.63
2023-04-23T10:41:50.371Z,16.81
2023-04-23T10:42:53.369Z,16.94
2023-04-23T10:43:56.237Z,17.06
2023-04-23T10:46:11.144Z,17.31
2023-04-23T10:47:16.300Z,17.50
2023-04-23T10:48:19.298Z,17.56
2023-04-23T10:49:53.853Z,17.56
2023-04-23T10:51:09.662Z,17.56
2023-04-23T10:53:12.191Z,17.50
2023-04-23T10:54:46.698Z,17.38
2023-04-23T10:55:49.691Z,17.31
2023-04-23T10:56:52.678Z,17.25
2023-04-23T10:58:27.431Z,17.13
2023-04-23T10:59:30.185Z,17.06
2023-04-23T11:01:14.537Z,16.94
2023-04-23T11:02:17.934Z,16.88
2023-04-23T11:03:54.563Z,16.81
2023-04-23T11:04:59.466Z,16.75
2023-04-23T11:06:02.323Z,16.69
2023-04-23T11:07:36.789Z,16.56
2023-04-23T11:08:55.279Z,16.50
2023-04-23T11:09:58.119Z,16.50
2023-04-23T11:11:32.855Z,16.56
2023-04-23T11:12:35.665Z,16.63
2023-04-23T11:13:38.613Z,16.75
2023-04-23T11:15:13.188Z,16.75
2023-04-23T11:16:16.406Z,16.75
2023-04-23T11:17:20.297Z,16.81
2023-04-23T11:18:55.354Z,16.88
2023-04-23T11:20:01.251Z,16.94
2023-04-23T11:21:03.966Z,17.00
2023-04-23T11:22:38.483Z,17.13
2023-04-23T11:23:41.318Z,17.19
2023-04-23T11:24:44.119Z,17.19
2023-04-23T11:26:20.008Z,17.19
2023-04-23T11:27:22.693Z,17.19
2023-04-23T11:28:25.391Z,17.19
2023-04-23T11:30:00.423Z,17.31
2023-04-23T11:31:03.481Z,17.31
2023-04-23T11:32:06.500Z,17.31
2023-04-23T11:33:42.089Z,17.31
2023-04-23T11:34:44.935Z,17.38
2023-04-23T11:35:48.774Z,17.50
2023-04-23T11:37:23.339Z,17.56
2023-04-23T11:38:26.262Z,17.56
2023-04-23T11:39:29.271Z,17.44
2023-04-23T11:41:04.325Z,17.38
2023-04-23T11:42:07.084Z,17.25
2023-04-23T11:43:09.859Z,17.19
2023-04-23T11:44:44.325Z,17.13
2023-04-23T11:45:47.289Z,17.00
2023-04-23T11:46:50.573Z,16.94
2023-04-23T11:48:27.706Z,16.88
2023-04-23T11:49:30.690Z,16.81
2023-04-23T11:50:34.040Z,16.81
2023-04-23T11:52:08.707Z,16.75
2023-04-23T11:53:14.497Z,16.75
2023-04-23T11:54:17.334Z,16.81
2023-04-23T11:55:51.841Z,16.81
2023-04-23T11:56:54.641Z,16.75
2023-04-23T11:57:57.669Z,16.81
2023-04-23T11:59:32.249Z,16.81
2023-04-23T12:01:14.387Z,16.81
2023-04-23T12:02:17.363Z,16.81
2023-04-23T12:03:53.543Z,16.81
2023-04-23T12:04:58.813Z,16.81
2023-04-23T12:06:02.101Z,16.88
2023-04-23T12:07:36.781Z,16.94
2023-04-23T12:08:39.599Z,16.94
2023-04-23T12:09:42.721Z,17.00
2023-04-23T12:11:17.723Z,17.06
2023-04-23T12:12:20.593Z,17.13
2023-04-23T12:13:23.351Z,17.13
2023-04-23T12:14:57.940Z,17.19
2023-04-23T12:16:00.711Z,17.19
2023-04-23T12:17:04.603Z,17.19
2023-04-23T12:18:39.268Z,17.19
2023-04-23T12:19:42.291Z,17.19
2023-04-23T12:20:45.441Z,17.19
2023-04-23T12:22:20.054Z,17.25
2023-04-23T12:23:22.955Z,17.25
2023-04-23T12:24:26.178Z,17.25
2023-04-23T12:26:01.209Z,17.25
2023-04-23T12:27:04.361Z,17.19
2023-04-23T12:28:07.420Z,17.19
2023-04-23T12:29:42.422Z,17.19
2023-04-23T12:30:47.898Z,17.19
2023-04-23T12:31:51.041Z,17.25
2023-04-23T12:33:26.010Z,17.25
2023-04-23T12:34:28.688Z,17.25
2023-04-23T12:35:31.984Z,17.25
2023-04-23T12:37:06.655Z,17.19
2023-04-23T12:38:09.523Z,17.19
2023-04-23T12:39:12.646Z,17.19
2023-04-23T12:40:48.011Z,17.25
2023-04-23T12:41:50.880Z,17.25
2023-04-23T12:42:53.842Z,17.25
2023-04-23T12:44:28.736Z,17.19
2023-04-23T12:45:31.710Z,17.19
2023-04-23T12:46:34.522Z,17.13
2023-04-23T12:48:10.707Z,17.13
2023-04-23T12:49:13.513Z,17.13
2023-04-23T12:50:16.950Z,17.13
2023-04-23T12:51:51.329Z,17.06
2023-04-23T12:52:54.781Z,17.06
2023-04-23T12:53:57.569Z,17.00
2023-04-23T12:55:32.270Z,16.94
2023-04-23T12:56:35.284Z,16.88
2023-04-23T12:57:38.146Z,16.88
2023-04-23T12:59:13.128Z,16.88
2023-04-23T13:01:14.487Z,16.94
2023-04-23T13:02:17.647Z,16.94
2023-04-23T13:03:53.685Z,16.94
2023-04-23T13:04:56.960Z,16.94
2023-04-23T13:05:59.808Z,16.94
2023-04-23T13:07:34.324Z,16.94
2023-04-23T13:08:37.051Z,16.94
2023-04-23T13:09:39.982Z,17.00
2023-04-23T13:11:14.955Z,17.13
2023-04-23T13:12:17.922Z,17.25
2023-04-23T13:13:20.869Z,17.38
2023-04-23T13:14:55.595Z,17.56
2023-04-23T13:16:02.199Z,17.69
2023-04-23T13:17:05.584Z,17.69
2023-04-23T13:18:40.203Z,17.88
2023-04-23T13:19:43.122Z,17.94
2023-04-23T13:20:46.244Z,18.00
2023-04-23T13:22:20.906Z,18.19
2023-04-23T13:23:23.669Z,18.31
2023-04-23T13:24:26.381Z,18.38
2023-04-23T13:26:01.057Z,18.44
2023-04-23T13:27:03.935Z,18.44
2023-04-23T13:28:06.773Z,18.44
2023-04-23T13:29:41.669Z,18.44
2023-04-23T13:30:44.859Z,18.44
2023-04-23T13:31:47.798Z,18.25
2023-04-23T13:33:23.195Z,18.25
2023-04-23T13:34:26.056Z,18.25
2023-04-23T13:35:28.861Z,18.19
2023-04-23T13:37:03.342Z,18.13
2023-04-23T13:38:06.200Z,18.06
2023-04-23T13:39:08.981Z,18.06
2023-04-23T13:40:45.333Z,17.94
2023-04-23T13:41:59.184Z,17.81
2023-04-23T13:43:07.565Z,17.81
2023-04-23T13:44:42.425Z,17.81
2023-04-23T13:45:46.195Z,17.81
2023-04-23T13:46:49.498Z,17.81
2023-04-23T13:48:24.262Z,17.81
2023-04-23T13:49:27.293Z,17.81
2023-04-23T13:50:30.639Z,17.81
2023-04-23T13:52:05.247Z,17.69
2023-04-23T13:53:08.115Z,17.63
2023-04-23T13:54:11.069Z,17.63
2023-04-23T13:55:45.630Z,17.50
2023-04-23T13:56:48.453Z,17.44
2023-04-23T13:57:51.250Z,17.44
2023-04-23T13:59:26.381Z,17.38
2023-04-23T14:01:15.193Z,17.31
2023-04-23T14:02:18.688Z,17.19
2023-04-23T14:03:54.600Z,17.13
2023-04-23T14:04:59.903Z,17.13
2023-04-23T14:06:02.876Z,17.13
2023-04-23T14:07:37.616Z,17.13
2023-04-23T14:08:40.514Z,17.13
2023-04-23T14:09:43.773Z,17.13
2023-04-23T14:11:18.791Z,17.13
2023-04-23T14:12:21.798Z,17.13
2023-04-23T14:13:24.597Z,17.13
2023-04-23T14:14:59.139Z,17.13
2023-04-23T14:16:03.545Z,17.06
2023-04-23T14:17:07.153Z,17.06
2023-04-23T14:18:42.038Z,17.00
2023-04-23T14:19:45.008Z,17.00
2023-04-23T14:20:47.968Z,16.94
2023-04-23T14:22:23.276Z,16.94
2023-04-23T14:23:26.231Z,16.94
2023-04-23T14:24:29.438Z,16.94
2023-04-23T14:26:04.084Z,16.88
2023-04-23T14:27:24.781Z,16.81
2023-04-23T14:28:27.548Z,16.81
2023-04-23T14:30:02.136Z,16.75
2023-04-23T14:31:04.985Z,16.81
2023-04-23T14:32:08.220Z,16.81
2023-04-23T14:33:43.326Z,16.81
2023-04-23T14:34:46.158Z,16.81
2023-04-23T14:35:49.109Z,16.81
2023-04-23T14:37:23.746Z,16.88
2023-04-23T14:38:26.729Z,16.88
2023-04-23T14:39:29.710Z,16.88
2023-04-23T14:41:05.282Z,16.88
2023-04-23T14:42:08.207Z,16.88
2023-04-23T14:43:15.631Z,16.88
2023-04-23T14:44:52.081Z,16.88
2023-04-23T14:45:54.954Z,16.88
2023-04-23T14:46:58.297Z,16.88
2023-04-23T14:48:32.921Z,16.88
2023-04-23T14:49:37.667Z,16.88
2023-04-23T14:50:41.373Z,16.88
2023-04-23T14:52:16.114Z,16.81
2023-04-23T14:53:19.146Z,16.81
2023-04-23T14:54:22.076Z,16.81
2023-04-23T14:55:56.928Z,16.81
2023-04-23T14:56:59.885Z,16.81
2023-04-23T14:58:02.753Z,16.75
2023-04-23T14:59:37.478Z,16.75
2023-04-23T15:00:11.981Z,16.75
2023-04-23T15:01:14.759Z,16.69
2023-04-23T15:02:17.860Z,16.69
2023-04-23T15:03:53.842Z,16.69
2023-04-23T15:04:57.643Z,16.69
2023-04-23T15:06:00.517Z,16.63
2023-04-23T15:07:35.056Z,16.63
2023-04-23T15:08:38.067Z,16.63
2023-04-23T15:09:41.363Z,16.63
2023-04-23T15:11:16.374Z,16.63
2023-04-23T15:12:19.406Z,16.63
2023-04-23T15:13:22.296Z,16.63
2023-04-23T15:14:57.022Z,16.56
2023-04-23T15:16:15.913Z,16.56
2023-04-23T15:17:41.774Z,16.50
2023-04-23T15:19:16.979Z,16.50
2023-04-23T15:20:19.835Z,16.44
2023-04-23T15:21:22.593Z,16.44
2023-04-23T15:22:57.073Z,16.38
2023-04-23T15:24:00.002Z,16.38
2023-04-23T15:25:03.188Z,16.31
2023-04-23T15:26:37.928Z,16.31
2023-04-23T15:27:40.924Z,16.31
2023-04-23T15:28:43.902Z,16.31
2023-04-23T15:30:18.629Z,16.31
2023-04-23T15:31:21.617Z,16.31
2023-04-23T15:32:25.428Z,16.31
2023-04-23T15:34:00.331Z,16.31
2023-04-23T15:35:03.105Z,16.31
2023-04-23T15:36:05.992Z,16.31
2023-04-23T15:37:40.363Z,16.31
2023-04-23T15:38:43.157Z,16.31
2023-04-23T15:39:45.919Z,16.31
2023-04-23T15:41:20.474Z,16.31
2023-04-23T15:42:26.955Z,16.31
2023-04-23T15:43:29.928Z,16.31
2023-04-23T15:45:04.630Z,16.25
2023-04-23T15:46:07.686Z,16.25
2023-04-23T15:47:10.958Z,16.25
2023-04-23T15:48:45.992Z,16.19
2023-04-23T15:49:48.889Z,16.19
2023-04-23T15:50:51.886Z,16.19
2023-04-23T15:52:26.380Z,16.06
2023-04-23T15:53:30.974Z,16.06
2023-04-23T15:54:33.722Z,16.00
2023-04-23T15:56:08.217Z,15.94
2023-04-23T15:57:11.051Z,15.88
2023-04-23T15:58:13.734Z,15.81
2023-04-23T15:59:48.565Z,15.75
2023-04-23T16:00:12.623Z,15.69
2023-04-23T16:01:15.437Z,15.63
2023-04-23T16:02:19.648Z,15.56
2023-04-23T16:04:09.812Z,15.25
2023-04-23T16:05:41.218Z,14.94
2023-04-23T16:06:45.516Z,14.38
2023-04-23T16:07:48.431Z,14.06
2023-04-23T16:09:23.051Z,13.56
2023-04-23T16:10:26.358Z,13.31
2023-04-23T16:11:29.390Z,13.06
2023-04-23T16:13:04.143Z,12.94
2023-04-23T16:14:07.086Z,12.88